sensor_id;sensor_type;location;lat;lon;timestamp;pressure;altitude;pressure_sealevel;temperature
65316;BMP280;51920;53.952;10.292;2024-02-28T00:02:02;101486.38;;;3.85
65316;BMP280;51920;53.952;10.292;2024-02-28T00:04:29;101489.81;;;3.86
65316;BMP280;51920;53.952;10.292;2024-02-28T00:06:56;101487.16;;;3.86
65316;BMP280;51920;53.952;10.292;2024-02-28T00:09:23;101487.94;;;3.86
65316;BMP280;51920;53.952;10.292;2024-02-28T00:11:50;101486.03;;;3.87
65316;BMP280;51920;53.952;10.292;2024-02-28T00:14:17;101476.72;;;3.84
65316;BMP280;51920;53.952;10.292;2024-02-28T00:16:45;101475.94;;;3.84
65316;BMP280;51920;53.952;10.292;2024-02-28T00:19:12;101478.16;;;3.82
65316;BMP280;51920;53.952;10.292;2024-02-28T00:21:40;101481.31;;;3.84
65316;BMP280;51920;53.952;10.292;2024-02-28T00:24:07;101487.75;;;3.83
65316;BMP280;51920;53.952;10.292;2024-02-28T00:26:34;101485.06;;;3.83
65316;BMP280;51920;53.952;10.292;2024-02-28T00:29:01;101485.06;;;3.83
65316;BMP280;51920;53.952;10.292;2024-02-28T00:31:28;101475.94;;;3.84
65316;BMP280;51920;53.952;10.292;2024-02-28T00:33:55;101473.28;;;3.84
65316;BMP280;51920;53.952;10.292;2024-02-28T00:36:22;101469.00;;;3.83
65316;BMP280;51920;53.952;10.292;2024-02-28T00:38:49;101471.38;;;3.84
65316;BMP280;51920;53.952;10.292;2024-02-28T00:41:16;101466.31;;;3.83
65316;BMP280;51920;53.952;10.292;2024-02-28T00:43:43;101467.28;;;3.87
65316;BMP280;51920;53.952;10.292;2024-02-28T00:46:10;101471.25;;;3.90
65316;BMP280;51920;53.952;10.292;2024-02-28T00:48:38;101470.13;;;3.91
65316;BMP280;51920;53.952;10.292;2024-02-28T00:51:06;101471.84;;;3.86
65316;BMP280;51920;53.952;10.292;2024-02-28T00:53:35;101465.53;;;3.82
65316;BMP280;51920;53.952;10.292;2024-02-28T00:56:02;101464.75;;;3.82
65316;BMP280;51920;53.952;10.292;2024-02-28T00:58:30;101463.94;;;3.81
65316;BMP280;51920;53.952;10.292;2024-02-28T01:00:57;101456.19;;;3.80
65316;BMP280;51920;53.952;10.292;2024-02-28T01:03:24;101457.94;;;3.76
65316;BMP280;51920;53.952;10.292;2024-02-28T01:05:51;101449.63;;;3.77
65316;BMP280;51920;53.952;10.292;2024-02-28T01:08:18;101444.56;;;3.76
65316;BMP280;51920;53.952;10.292;2024-02-28T01:10:45;101448.66;;;3.73
65316;BMP280;51920;53.952;10.292;2024-02-28T01:13:13;101447.22;;;3.76
65316;BMP280;51920;53.952;10.292;2024-02-28T01:15:41;101443.91;;;3.79
65316;BMP280;51920;53.952;10.292;2024-02-28T01:18:09;101446.59;;;3.79
65316;BMP280;51920;53.952;10.292;2024-02-28T01:20:36;101443.63;;;3.80
65316;BMP280;51920;53.952;10.292;2024-02-28T01:23:03;101433.53;;;3.77
65316;BMP280;51920;53.952;10.292;2024-02-28T01:25:30;101446.00;;;3.82
65316;BMP280;51920;53.952;10.292;2024-02-28T01:27:57;101438.13;;;3.77
65316;BMP280;51920;53.952;10.292;2024-02-28T01:30:27;101430.84;;;3.77
65316;BMP280;51920;53.952;10.292;2024-02-28T01:32:53;101427.53;;;3.80
65316;BMP280;51920;53.952;10.292;2024-02-28T01:35:20;101425.81;;;3.76
65316;BMP280;51920;53.952;10.292;2024-02-28T01:37:47;101426.72;;;3.71
65316;BMP280;51920;53.952;10.292;2024-02-28T01:40:15;101439.31;;;3.71
65316;BMP280;51920;53.952;10.292;2024-02-28T01:42:42;101431.91;;;3.67
65316;BMP280;51920;53.952;10.292;2024-02-28T01:45:13;101441.88;;;3.76
65316;BMP280;51920;53.952;10.292;2024-02-28T01:47:42;101441.81;;;3.67
65316;BMP280;51920;53.952;10.292;2024-02-28T01:50:09;101439.31;;;3.71
65316;BMP280;51920;53.952;10.292;2024-02-28T01:52:38;101429.72;;;3.70
65316;BMP280;51920;53.952;10.292;2024-02-28T01:55:06;101433.97;;;3.71
65316;BMP280;51920;53.952;10.292;2024-02-28T01:57:33;101431.75;;;3.73
65316;BMP280;51920;53.952;10.292;2024-02-28T02:00:02;101435.09;;;3.70
65316;BMP280;51920;53.952;10.292;2024-02-28T02:02:30;101430.34;;;3.66
65316;BMP280;51920;53.952;10.292;2024-02-28T02:04:57;101427.47;;;3.63
65316;BMP280;51920;53.952;10.292;2024-02-28T02:07:25;101428.25;;;3.63
65316;BMP280;51920;53.952;10.292;2024-02-28T02:09:52;101435.22;;;3.64
65316;BMP280;51920;53.952;10.292;2024-02-28T02:12:19;101439.56;;;3.60
65316;BMP280;51920;53.952;10.292;2024-02-28T02:14:50;101442.59;;;3.59
65316;BMP280;51920;53.952;10.292;2024-02-28T02:17:17;101439.16;;;3.67
65316;BMP280;51920;53.952;10.292;2024-02-28T02:19:44;101431.88;;;3.59
65316;BMP280;51920;53.952;10.292;2024-02-28T02:22:13;101441.91;;;3.53
65316;BMP280;51920;53.952;10.292;2024-02-28T02:24:41;101447.63;;;3.52
65316;BMP280;51920;53.952;10.292;2024-02-28T02:27:08;101445.25;;;3.50
65316;BMP280;51920;53.952;10.292;2024-02-28T02:29:35;101446.94;;;3.46
65316;BMP280;51920;53.952;10.292;2024-02-28T02:32:01;101440.00;;;3.45
65316;BMP280;51920;53.952;10.292;2024-02-28T02:34:28;101441.84;;;3.36
65316;BMP280;51920;53.952;10.292;2024-02-28T02:36:55;101444.16;;;3.28
65316;BMP280;51920;53.952;10.292;2024-02-28T02:39:22;101451.81;;;3.44
65316;BMP280;51920;53.952;10.292;2024-02-28T02:41:49;101441.97;;;3.31
65316;BMP280;51920;53.952;10.292;2024-02-28T02:44:17;101447.47;;;3.25
65316;BMP280;51920;53.952;10.292;2024-02-28T02:46:44;101452.16;;;3.20
65316;BMP280;51920;53.952;10.292;2024-02-28T02:49:10;101461.19;;;3.10
65316;BMP280;51920;53.952;10.292;2024-02-28T02:51:37;101452.69;;;3.08
65316;BMP280;51920;53.952;10.292;2024-02-28T02:54:04;101461.97;;;3.11
65316;BMP280;51920;53.952;10.292;2024-02-28T02:56:31;101449.63;;;3.01
65316;BMP280;51920;53.952;10.292;2024-02-28T02:58:58;101449.00;;;2.95
65316;BMP280;51920;53.952;10.292;2024-02-28T03:01:25;101442.97;;;2.89
65316;BMP280;51920;53.952;10.292;2024-02-28T03:03:52;101441.56;;;2.92
65316;BMP280;51920;53.952;10.292;2024-02-28T03:06:19;101447.50;;;2.89
65316;BMP280;51920;53.952;10.292;2024-02-28T03:08:46;101461.19;;;2.87
65316;BMP280;51920;53.952;10.292;2024-02-28T03:11:13;101458.03;;;2.85
65316;BMP280;51920;53.952;10.292;2024-02-28T03:13:40;101465.94;;;2.91
65316;BMP280;51920;53.952;10.292;2024-02-28T03:16:07;101474.66;;;2.96
65316;BMP280;51920;53.952;10.292;2024-02-28T03:18:34;101472.91;;;2.92
65316;BMP280;51920;53.952;10.292;2024-02-28T03:21:01;101480.94;;;2.92
65316;BMP280;51920;53.952;10.292;2024-02-28T03:23:28;101473.69;;;2.92
65316;BMP280;51920;53.952;10.292;2024-02-28T03:25:55;101469.59;;;2.95
65316;BMP280;51920;53.952;10.292;2024-02-28T03:28:22;101468.91;;;2.89
65316;BMP280;51920;53.952;10.292;2024-02-28T03:30:49;101468.13;;;2.88
65316;BMP280;51920;53.952;10.292;2024-02-28T03:33:16;101466.72;;;2.91
65316;BMP280;51920;53.952;10.292;2024-02-28T03:35:43;101453.06;;;2.93
65316;BMP280;51920;53.952;10.292;2024-02-28T03:38:10;101462.09;;;2.97
65316;BMP280;51920;53.952;10.292;2024-02-28T03:40:37;101463.75;;;2.93
65316;BMP280;51920;53.952;10.292;2024-02-28T03:43:03;101460.53;;;3.04
65316;BMP280;51920;53.952;10.292;2024-02-28T03:45:30;101458.91;;;2.95
65316;BMP280;51920;53.952;10.292;2024-02-28T03:47:57;101464.75;;;2.97
65316;BMP280;51920;53.952;10.292;2024-02-28T03:50:24;101466.78;;;3.00
65316;BMP280;51920;53.952;10.292;2024-02-28T03:52:51;101461.91;;;3.02
65316;BMP280;51920;53.952;10.292;2024-02-28T03:55:18;101463.41;;;3.08
65316;BMP280;51920;53.952;10.292;2024-02-28T03:57:48;101463.69;;;3.06
65316;BMP280;51920;53.952;10.292;2024-02-28T04:00:16;101452.38;;;3.09
65316;BMP280;51920;53.952;10.292;2024-02-28T04:02:42;101449.28;;;3.16
65316;BMP280;51920;53.952;10.292;2024-02-28T04:05:09;101446.56;;;3.07
65316;BMP280;51920;53.952;10.292;2024-02-28T04:07:36;101457.81;;;3.18
65316;BMP280;51920;53.952;10.292;2024-02-28T04:10:04;101452.69;;;3.08
65316;BMP280;51920;53.952;10.292;2024-02-28T04:12:31;101453.88;;;3.02
65316;BMP280;51920;53.952;10.292;2024-02-28T04:14:59;101451.38;;;3.05
65316;BMP280;51920;53.952;10.292;2024-02-28T04:17:26;101443.19;;;3.02
65316;BMP280;51920;53.952;10.292;2024-02-28T04:19:53;101441.31;;;3.02
65316;BMP280;51920;53.952;10.292;2024-02-28T04:22:20;101436.25;;;3.01
65316;BMP280;51920;53.952;10.292;2024-02-28T04:24:47;101447.25;;;2.99
65316;BMP280;51920;53.952;10.292;2024-02-28T04:27:14;101438.28;;;2.95
65316;BMP280;51920;53.952;10.292;2024-02-28T04:29:41;101435.63;;;2.95
65316;BMP280;51920;53.952;10.292;2024-02-28T04:32:08;101446.03;;;2.97
65316;BMP280;51920;53.952;10.292;2024-02-28T04:34:36;101444.44;;;2.96
65316;BMP280;51920;53.952;10.292;2024-02-28T04:37:03;101450.25;;;2.98
65316;BMP280;51920;53.952;10.292;2024-02-28T04:39:30;101448.69;;;2.97
65316;BMP280;51920;53.952;10.292;2024-02-28T04:41:57;101452.56;;;2.91
65316;BMP280;51920;53.952;10.292;2024-02-28T04:44:24;101456.84;;;2.92
65316;BMP280;51920;53.952;10.292;2024-02-28T04:46:51;101464.75;;;2.97
65316;BMP280;51920;53.952;10.292;2024-02-28T04:49:18;101468.94;;;3.12
65316;BMP280;51920;53.952;10.292;2024-02-28T04:51:45;101460.78;;;3.17
65316;BMP280;51920;53.952;10.292;2024-02-28T04:54:12;101466.44;;;3.15
65316;BMP280;51920;53.952;10.292;2024-02-28T04:56:42;101465.97;;;3.13
65316;BMP280;51920;53.952;10.292;2024-02-28T04:59:12;101462.91;;;3.06
65316;BMP280;51920;53.952;10.292;2024-02-28T05:01:39;101466.91;;;2.95
65316;BMP280;51920;53.952;10.292;2024-02-28T05:04:08;101464.69;;;2.88
65316;BMP280;51920;53.952;10.292;2024-02-28T05:06:35;101461.63;;;2.81
65316;BMP280;51920;53.952;10.292;2024-02-28T05:09:04;101470.34;;;2.73
65316;BMP280;51920;53.952;10.292;2024-02-28T05:11:31;101462.63;;;2.71
65316;BMP280;51920;53.952;10.292;2024-02-28T05:13:58;101460.53;;;2.68
65316;BMP280;51920;53.952;10.292;2024-02-28T05:16:26;101470.16;;;2.69
65316;BMP280;51920;53.952;10.292;2024-02-28T05:18:53;101470.88;;;2.61
65316;BMP280;51920;53.952;10.292;2024-02-28T05:21:20;101478.31;;;2.64
65316;BMP280;51920;53.952;10.292;2024-02-28T05:23:46;101471.41;;;2.63
65316;BMP280;51920;53.952;10.292;2024-02-28T05:26:13;101472.19;;;2.63
65316;BMP280;51920;53.952;10.292;2024-02-28T05:28:40;101479.72;;;2.61
65316;BMP280;51920;53.952;10.292;2024-02-28T05:31:27;101474.66;;;2.60
65316;BMP280;51920;53.952;10.292;2024-02-28T05:33:56;101481.88;;;2.59
65316;BMP280;51920;53.952;10.292;2024-02-28T05:36:24;101486.81;;;2.66
65316;BMP280;51920;53.952;10.292;2024-02-28T05:38:53;101474.56;;;2.65
65316;BMP280;51920;53.952;10.292;2024-02-28T05:41:20;101478.31;;;2.64
65316;BMP280;51920;53.952;10.292;2024-02-28T05:43:48;101477.09;;;2.70
65316;BMP280;51920;53.952;10.292;2024-02-28T05:46:16;101474.91;;;2.72
65316;BMP280;51920;53.952;10.292;2024-02-28T05:48:44;101478.97;;;2.69
65316;BMP280;51920;53.952;10.292;2024-02-28T05:51:12;101486.81;;;2.66
65316;BMP280;51920;53.952;10.292;2024-02-28T05:53:40;101476.94;;;2.66
65316;BMP280;51920;53.952;10.292;2024-02-28T05:56:08;101473.13;;;2.67
65316;BMP280;51920;53.952;10.292;2024-02-28T05:58:44;101486.22;;;2.69
65316;BMP280;51920;53.952;10.292;2024-02-28T06:01:13;101479.13;;;2.87
65316;BMP280;51920;53.952;10.292;2024-02-28T06:03:41;101494.13;;;2.74
65316;BMP280;51920;53.952;10.292;2024-02-28T06:06:08;101483.91;;;2.76
65316;BMP280;51920;53.952;10.292;2024-02-28T06:08:38;101491.47;;;2.74
65316;BMP280;51920;53.952;10.292;2024-02-28T06:11:06;101489.28;;;2.76
65316;BMP280;51920;53.952;10.292;2024-02-28T06:13:33;101497.28;;;2.76
65316;BMP280;51920;53.952;10.292;2024-02-28T06:16:00;101491.53;;;2.83
65316;BMP280;51920;53.952;10.292;2024-02-28T06:18:27;101498.75;;;2.82
65316;BMP280;51920;53.952;10.292;2024-02-28T06:20:55;101503.13;;;2.78
65316;BMP280;51920;53.952;10.292;2024-02-28T06:23:22;101498.47;;;2.84
65316;BMP280;51920;53.952;10.292;2024-02-28T06:25:53;101499.16;;;2.89
65316;BMP280;51920;53.952;10.292;2024-02-28T06:28:20;101506.22;;;3.08
65316;BMP280;51920;53.952;10.292;2024-02-28T06:30:47;101508.22;;;3.02
65316;BMP280;51920;53.952;10.292;2024-02-28T06:33:14;101509.25;;;2.93
65316;BMP280;51920;53.952;10.292;2024-02-28T06:35:41;101521.06;;;2.92
65316;BMP280;51920;53.952;10.292;2024-02-28T06:38:08;101525.78;;;2.95
65316;BMP280;51920;53.952;10.292;2024-02-28T06:40:35;101521.06;;;2.92
65316;BMP280;51920;53.952;10.292;2024-02-28T06:43:02;101516.78;;;2.91
65316;BMP280;51920;53.952;10.292;2024-02-28T06:45:29;101514.47;;;2.98
65316;BMP280;51920;53.952;10.292;2024-02-28T06:47:57;101514.94;;;3.00
65316;BMP280;51920;53.952;10.292;2024-02-28T06:50:24;101513.72;;;2.97
65316;BMP280;51920;53.952;10.292;2024-02-28T06:52:51;101519.22;;;3.01
65316;BMP280;51920;53.952;10.292;2024-02-28T06:55:20;101512.66;;;3.07
65316;BMP280;51920;53.952;10.292;2024-02-28T06:57:47;101524.97;;;3.08
65316;BMP280;51920;53.952;10.292;2024-02-28T07:00:14;101529.81;;;3.06
65316;BMP280;51920;53.952;10.292;2024-02-28T07:02:42;101523.34;;;3.07
65316;BMP280;51920;53.952;10.292;2024-02-28T07:05:10;101523.75;;;3.14
65316;BMP280;51920;53.952;10.292;2024-02-28T07:07:37;101525.03;;;3.17
65316;BMP280;51920;53.952;10.292;2024-02-28T07:10:04;101531.06;;;3.22
65316;BMP280;51920;53.952;10.292;2024-02-28T07:12:31;101533.00;;;3.31
65316;BMP280;51920;53.952;10.292;2024-02-28T07:14:58;101526.53;;;3.32
65316;BMP280;51920;53.952;10.292;2024-02-28T07:17:25;101530.22;;;3.36
65316;BMP280;51920;53.952;10.292;2024-02-28T07:19:53;101528.50;;;3.40
65316;BMP280;51920;53.952;10.292;2024-02-28T07:22:19;101526.50;;;3.45
65316;BMP280;51920;53.952;10.292;2024-02-28T07:24:48;101533.50;;;3.55
65316;BMP280;51920;53.952;10.292;2024-02-28T07:27:15;101542.50;;;3.59
65316;BMP280;51920;53.952;10.292;2024-02-28T07:29:43;101545.78;;;3.56
65316;BMP280;51920;53.952;10.292;2024-02-28T07:32:10;101551.91;;;3.57
65316;BMP280;51920;53.952;10.292;2024-02-28T07:34:37;101544.56;;;3.62
65316;BMP280;51920;53.952;10.292;2024-02-28T07:37:05;101546.00;;;3.68
65316;BMP280;51920;53.952;10.292;2024-02-28T07:39:32;101544.94;;;3.70
65316;BMP280;51920;53.952;10.292;2024-02-28T07:41:59;101546.09;;;3.77
65316;BMP280;51920;53.952;10.292;2024-02-28T07:44:27;101545.91;;;3.74
65316;BMP280;51920;53.952;10.292;2024-02-28T07:46:57;101545.91;;;3.74
65316;BMP280;51920;53.952;10.292;2024-02-28T07:49:25;101540.38;;;3.79
65316;BMP280;51920;53.952;10.292;2024-02-28T07:51:53;101536.47;;;3.85
65316;BMP280;51920;53.952;10.292;2024-02-28T07:54:21;101534.66;;;3.94
65316;BMP280;51920;53.952;10.292;2024-02-28T07:56:48;101530.22;;;3.90
65316;BMP280;51920;53.952;10.292;2024-02-28T07:59:15;101536.22;;;3.95
65316;BMP280;51920;53.952;10.292;2024-02-28T08:01:42;101538.31;;;3.98
65316;BMP280;51920;53.952;10.292;2024-02-28T08:04:09;101552.94;;;4.01
65316;BMP280;51920;53.952;10.292;2024-02-28T08:06:36;101552.31;;;4.04
65316;BMP280;51920;53.952;10.292;2024-02-28T08:09:03;101553.28;;;3.99
65316;BMP280;51920;53.952;10.292;2024-02-28T08:11:31;101559.28;;;4.05
65316;BMP280;51920;53.952;10.292;2024-02-28T08:13:57;101559.00;;;4.15
65316;BMP280;51920;53.952;10.292;2024-02-28T08:16:24;101570.22;;;4.26
65316;BMP280;51920;53.952;10.292;2024-02-28T08:18:52;101567.91;;;4.33
65316;BMP280;51920;53.952;10.292;2024-02-28T08:21:19;101564.47;;;4.41
65316;BMP280;51920;53.952;10.292;2024-02-28T08:23:46;101563.22;;;4.47
65316;BMP280;51920;53.952;10.292;2024-02-28T08:26:14;101573.94;;;4.47
65316;BMP280;51920;53.952;10.292;2024-02-28T08:28:41;101567.03;;;4.55
65316;BMP280;51920;53.952;10.292;2024-02-28T08:31:08;101565.13;;;4.64
65316;BMP280;51920;53.952;10.292;2024-02-28T08:33:34;101568.31;;;4.75
65316;BMP280;51920;53.952;10.292;2024-02-28T08:36:02;101567.84;;;4.82
65316;BMP280;51920;53.952;10.292;2024-02-28T08:38:28;101568.66;;;4.91
65316;BMP280;51920;53.952;10.292;2024-02-28T08:40:55;101573.41;;;4.94
65316;BMP280;51920;53.952;10.292;2024-02-28T08:43:22;101575.63;;;4.92
65316;BMP280;51920;53.952;10.292;2024-02-28T08:45:49;101579.38;;;4.91
65316;BMP280;51920;53.952;10.292;2024-02-28T08:48:18;101575.13;;;5.25
65316;BMP280;51920;53.952;10.292;2024-02-28T08:50:45;101582.53;;;5.37
65316;BMP280;51920;53.952;10.292;2024-02-28T08:53:12;101579.63;;;5.68
65316;BMP280;51920;53.952;10.292;2024-02-28T08:55:38;101584.78;;;5.91
65316;BMP280;51920;53.952;10.292;2024-02-28T08:58:05;101584.84;;;6.12
65316;BMP280;51920;53.952;10.292;2024-02-28T09:00:32;101587.22;;;6.13
65316;BMP280;51920;53.952;10.292;2024-02-28T09:02:59;101599.53;;;5.93
65316;BMP280;51920;53.952;10.292;2024-02-28T09:05:26;101597.13;;;5.92
65316;BMP280;51920;53.952;10.292;2024-02-28T09:07:53;101597.34;;;5.78
65316;BMP280;51920;53.952;10.292;2024-02-28T09:10:21;101589.91;;;5.75
65316;BMP280;51920;53.952;10.292;2024-02-28T09:12:50;101590.66;;;5.84
65316;BMP280;51920;53.952;10.292;2024-02-28T09:15:18;101591.19;;;5.77
65316;BMP280;51920;53.952;10.292;2024-02-28T09:17:45;101580.44;;;5.69
65316;BMP280;51920;53.952;10.292;2024-02-28T09:20:12;101590.63;;;5.93
65316;BMP280;51920;53.952;10.292;2024-02-28T09:22:39;101591.56;;;6.05
65316;BMP280;51920;53.952;10.292;2024-02-28T09:25:06;101589.03;;;6.09
65316;BMP280;51920;53.952;10.292;2024-02-28T09:27:36;101594.81;;;7.13
65316;BMP280;51920;53.952;10.292;2024-02-28T09:30:04;101596.56;;;8.89
65316;BMP280;51920;53.952;10.292;2024-02-28T09:32:31;101607.78;;;9.64
65316;BMP280;51920;53.952;10.292;2024-02-28T09:34:58;101619.22;;;10.98
65316;BMP280;51920;53.952;10.292;2024-02-28T09:37:25;101610.00;;;11.99
65316;BMP280;51920;53.952;10.292;2024-02-28T09:39:52;101614.16;;;12.80
65316;BMP280;51920;53.952;10.292;2024-02-28T09:42:20;101619.66;;;13.28
65316;BMP280;51920;53.952;10.292;2024-02-28T09:44:47;101614.28;;;12.27
65316;BMP280;51920;53.952;10.292;2024-02-28T09:47:14;101610.28;;;12.47
65316;BMP280;51920;53.952;10.292;2024-02-28T09:49:42;101621.47;;;13.13
65316;BMP280;51920;53.952;10.292;2024-02-28T09:52:09;101618.41;;;13.15
65316;BMP280;51920;53.952;10.292;2024-02-28T09:54:36;101621.59;;;12.86
65316;BMP280;51920;53.952;10.292;2024-02-28T09:57:04;101621.16;;;12.81
65316;BMP280;51920;53.952;10.292;2024-02-28T09:59:31;101627.56;;;11.78
65316;BMP280;51920;53.952;10.292;2024-02-28T10:02:01;101618.66;;;10.70
65316;BMP280;51920;53.952;10.292;2024-02-28T10:04:29;101612.91;;;9.53
65316;BMP280;51920;53.952;10.292;2024-02-28T10:06:56;101624.63;;;8.73
65316;BMP280;51920;53.952;10.292;2024-02-28T10:09:23;101617.94;;;7.93
65316;BMP280;51920;53.952;10.292;2024-02-28T10:11:53;101618.94;;;7.88
65316;BMP280;51920;53.952;10.292;2024-02-28T10:14:20;101618.03;;;7.84
65316;BMP280;51920;53.952;10.292;2024-02-28T10:16:47;101608.25;;;7.67
65316;BMP280;51920;53.952;10.292;2024-02-28T10:19:14;101617.50;;;7.45
65316;BMP280;51920;53.952;10.292;2024-02-28T10:21:41;101618.63;;;7.44
65316;BMP280;51920;53.952;10.292;2024-02-28T10:24:11;101624.34;;;7.42
65316;BMP280;51920;53.952;10.292;2024-02-28T10:26:46;101626.94;;;7.18
65316;BMP280;51920;53.952;10.292;2024-02-28T10:29:25;101622.16;;;7.23
65316;BMP280;51920;53.952;10.292;2024-02-28T10:31:52;101618.03;;;7.05
65316;BMP280;51920;53.952;10.292;2024-02-28T10:34:19;101617.41;;;6.99
65316;BMP280;51920;53.952;10.292;2024-02-28T10:36:46;101619.56;;;7.06
65316;BMP280;51920;53.952;10.292;2024-02-28T10:39:13;101614.19;;;7.06
65316;BMP280;51920;53.952;10.292;2024-02-28T10:41:41;101617.66;;;7.27
65316;BMP280;51920;53.952;10.292;2024-02-28T10:44:09;101614.53;;;7.25
65316;BMP280;51920;53.952;10.292;2024-02-28T10:46:38;101620.00;;;7.29
65316;BMP280;51920;53.952;10.292;2024-02-28T10:49:06;101614.97;;;7.27
65316;BMP280;51920;53.952;10.292;2024-02-28T10:51:35;101616.84;;;7.48
65316;BMP280;51920;53.952;10.292;2024-02-28T10:54:12;101622.59;;;7.59
65316;BMP280;51920;53.952;10.292;2024-02-28T10:56:41;101622.31;;;7.73
65316;BMP280;51920;53.952;10.292;2024-02-28T10:59:10;101620.06;;;7.75
65316;BMP280;51920;53.952;10.292;2024-02-28T11:01:47;101629.94;;;7.71
65316;BMP280;51920;53.952;10.292;2024-02-28T11:04:16;101621.53;;;7.72
65316;BMP280;51920;53.952;10.292;2024-02-28T11:07:10;101627.91;;;7.67
65316;BMP280;51920;53.952;10.292;2024-02-28T11:09:40;101631.25;;;7.64
65316;BMP280;51920;53.952;10.292;2024-02-28T11:12:24;101641.56;;;7.50
65316;BMP280;51920;53.952;10.292;2024-02-28T11:15:01;101632.09;;;7.44
65316;BMP280;51920;53.952;10.292;2024-02-28T11:17:29;101634.16;;;7.59
65316;BMP280;51920;53.952;10.292;2024-02-28T11:19:57;101635.22;;;7.67
65316;BMP280;51920;53.952;10.292;2024-02-28T11:22:28;101628.00;;;7.59
65316;BMP280;51920;53.952;10.292;2024-02-28T11:24:55;101634.66;;;7.74
65316;BMP280;51920;53.952;10.292;2024-02-28T11:27:22;101638.94;;;7.87
65316;BMP280;51920;53.952;10.292;2024-02-28T11:29:50;101630.44;;;7.85
65316;BMP280;51920;53.952;10.292;2024-02-28T11:32:17;101633.91;;;7.85
65316;BMP280;51920;53.952;10.292;2024-02-28T11:34:44;101631.97;;;7.74
65316;BMP280;51920;53.952;10.292;2024-02-28T11:37:12;101626.78;;;7.68
65316;BMP280;51920;53.952;10.292;2024-02-28T11:39:39;101628.59;;;7.77
65316;BMP280;51920;53.952;10.292;2024-02-28T11:42:10;101628.22;;;7.66
65316;BMP280;51920;53.952;10.292;2024-02-28T11:44:37;101634.44;;;7.79
65316;BMP280;51920;53.952;10.292;2024-02-28T11:47:04;101621.53;;;7.84
65316;BMP280;51920;53.952;10.292;2024-02-28T11:49:33;101621.09;;;7.95
65316;BMP280;51920;53.952;10.292;2024-02-28T11:52:00;101625.06;;;7.97
65316;BMP280;51920;53.952;10.292;2024-02-28T11:54:27;101630.22;;;8.02
65316;BMP280;51920;53.952;10.292;2024-02-28T11:56:54;101626.16;;;7.96
65316;BMP280;51920;53.952;10.292;2024-02-28T11:59:22;101622.34;;;7.97
65316;BMP280;51920;53.952;10.292;2024-02-28T12:01:49;101617.50;;;8.03
65316;BMP280;51920;53.952;10.292;2024-02-28T12:04:18;101618.16;;;8.00
65316;BMP280;51920;53.952;10.292;2024-02-28T12:06:45;101622.09;;;7.90
65316;BMP280;51920;53.952;10.292;2024-02-28T12:09:13;101621.31;;;8.02
65316;BMP280;51920;53.952;10.292;2024-02-28T12:11:44;101623.34;;;7.93
65316;BMP280;51920;53.952;10.292;2024-02-28T12:14:12;101623.63;;;7.79
65316;BMP280;51920;53.952;10.292;2024-02-28T12:16:39;101619.34;;;7.65
65316;BMP280;51920;53.952;10.292;2024-02-28T12:19:10;101622.75;;;7.75
65316;BMP280;51920;53.952;10.292;2024-02-28T12:21:38;101624.22;;;7.84
65316;BMP280;51920;53.952;10.292;2024-02-28T12:24:09;101622.31;;;7.73
65316;BMP280;51920;53.952;10.292;2024-02-28T12:26:37;101623.63;;;7.79
65316;BMP280;51920;53.952;10.292;2024-02-28T12:29:04;101619.50;;;7.81
65316;BMP280;51920;53.952;10.292;2024-02-28T12:31:31;101612.94;;;7.70
65316;BMP280;51920;53.952;10.292;2024-02-28T12:33:58;101610.84;;;7.76
65316;BMP280;51920;53.952;10.292;2024-02-28T12:36:25;101616.94;;;7.85
65316;BMP280;51920;53.952;10.292;2024-02-28T12:38:53;101603.34;;;8.06
65316;BMP280;51920;53.952;10.292;2024-02-28T12:41:20;101609.72;;;8.01
65316;BMP280;51920;53.952;10.292;2024-02-28T12:43:47;101602.50;;;8.30
65316;BMP280;51920;53.952;10.292;2024-02-28T12:46:14;101604.69;;;8.24
65316;BMP280;51920;53.952;10.292;2024-02-28T12:48:41;101605.22;;;8.30
65316;BMP280;51920;53.952;10.292;2024-02-28T12:51:13;101599.59;;;8.11
65316;BMP280;51920;53.952;10.292;2024-02-28T12:53:46;101587.50;;;8.04
65316;BMP280;51920;53.952;10.292;2024-02-28T12:56:17;101586.00;;;8.32
65316;BMP280;51920;53.952;10.292;2024-02-28T12:58:44;101581.59;;;8.39
65316;BMP280;51920;53.952;10.292;2024-02-28T13:01:11;101583.06;;;8.49
65316;BMP280;51920;53.952;10.292;2024-02-28T13:03:38;101582.09;;;8.69
65316;BMP280;51920;53.952;10.292;2024-02-28T13:06:05;101587.84;;;8.68
65316;BMP280;51920;53.952;10.292;2024-02-28T13:08:32;101587.56;;;8.45
65316;BMP280;51920;53.952;10.292;2024-02-28T13:10:59;101587.91;;;8.43
65316;BMP280;51920;53.952;10.292;2024-02-28T13:13:26;101592.84;;;8.54
65316;BMP280;51920;53.952;10.292;2024-02-28T13:15:53;101583.22;;;8.68
65316;BMP280;51920;53.952;10.292;2024-02-28T13:18:19;101579.91;;;8.87
65316;BMP280;51920;53.952;10.292;2024-02-28T13:20:46;101583.75;;;8.74
65316;BMP280;51920;53.952;10.292;2024-02-28T13:23:13;101569.72;;;8.68
65316;BMP280;51920;53.952;10.292;2024-02-28T13:25:40;101575.31;;;8.76
65316;BMP280;51920;53.952;10.292;2024-02-28T13:28:07;101563.34;;;8.89
65316;BMP280;51920;53.952;10.292;2024-02-28T13:30:34;101562.41;;;8.69
65316;BMP280;51920;53.952;10.292;2024-02-28T13:33:03;101564.13;;;8.61
65316;BMP280;51920;53.952;10.292;2024-02-28T13:35:30;101557.03;;;8.57
65316;BMP280;51920;53.952;10.292;2024-02-28T13:37:57;101562.75;;;8.55
65316;BMP280;51920;53.952;10.292;2024-02-28T13:40:28;101558.13;;;8.40
65316;BMP280;51920;53.952;10.292;2024-02-28T13:42:55;101555.75;;;8.38
65316;BMP280;51920;53.952;10.292;2024-02-28T13:45:21;101553.69;;;8.47
65316;BMP280;51920;53.952;10.292;2024-02-28T13:47:48;101546.28;;;8.32
65316;BMP280;51920;53.952;10.292;2024-02-28T13:50:15;101556.06;;;8.49
65316;BMP280;51920;53.952;10.292;2024-02-28T13:52:42;101555.91;;;8.58
65316;BMP280;51920;53.952;10.292;2024-02-28T13:55:09;101557.16;;;8.60
65316;BMP280;51920;53.952;10.292;2024-02-28T13:57:36;101554.78;;;8.59
65316;BMP280;51920;53.952;10.292;2024-02-28T14:00:03;101560.06;;;8.55